Time;durP1;ratioP1;P1;durP2;ratioP2;P2;SDS_P1;SDS_P2;PMS_P1;PMS_P2;Temp;Humidity;BMP_temperature;BMP_pressure;BME280_temperature;BME280_humidity;BME280_pressure;Samples;Min_cycle;Max_cycle;Signal;HPM_P1;HPM_P2
2022/01/12 00:00:48;;;;;;;;;;;3.40;95.50;;;;;;5061406;28;19936;-77
2022/01/12 00:03:16;;;;;;;;;;;3.40;95.60;;;;;;5064910;28;19932;-77
2022/01/12 00:05:43;;;;;;;;;;;3.40;95.60;;;;;;5062646;28;20312;-78
2022/01/12 00:08:10;;;;;;;;;;;3.40;95.60;;;;;;5060913;28;20008;-77
2022/01/12 00:10:38;;;;;;;;;;;3.40;95.90;;;;;;5059906;28;19928;-77
2022/01/12 00:13:05;;;;;;;;;;;3.30;95.60;;;;;;5057896;28;19928;-77
2022/01/12 00:15:31;;;;;;;;;;;3.30;95.60;;;;;;5060884;28;19933;-77
2022/01/12 00:17:58;;;;;;;;;;;3.30;95.60;;;;;;5061995;28;20015;-78
2022/01/12 00:20:26;;;;;;;;;;;3.30;95.60;;;;;;5065261;28;20162;-77
2022/01/12 00:22:53;;;;;;;;;;;3.30;95.50;;;;;;5061611;28;19936;-77
2022/01/12 00:25:29;;;;;;;;;;;3.30;95.50;;;;;;5061498;28;19928;-77
2022/01/12 00:33:24;;;;;;;;;;;3.20;95.50;;;;;;5062831;28;20337;-77
2022/01/12 00:35:53;;;;;;;;;;;3.30;95.60;;;;;;5063616;28;19928;-76
2022/01/12 00:38:21;;;;;;;;;;;3.20;95.50;;;;;;5061724;28;20062;-77
2022/01/12 00:40:49;;;;;;;;;;;3.20;95.60;;;;;;5059436;28;19932;-77
2022/01/12 00:43:16;;;;;;;;;;;3.20;95.50;;;;;;5061649;28;19940;-76
2022/01/12 00:45:45;;;;;;;;;;;3.20;95.50;;;;;;5061292;28;19944;-77
2022/01/12 00:48:11;;;;;;;;;;;3.20;95.50;;;;;;5061541;28;19928;-77
2022/01/12 00:50:38;;;;;;;;;;;3.20;95.50;;;;;;5062240;28;19939;-77
2022/01/12 00:53:06;;;;;;;;;;;3.20;95.50;;;;;;5061462;28;19928;-76
2022/01/12 00:55:33;;;;;;;;;;;3.20;95.60;;;;;;5059326;28;19973;-77
2022/01/12 00:58:00;;;;;;;;;;;3.20;95.60;;;;;;5061869;28;19928;-77
2022/01/12 01:00:28;;;;;;;;;;;3.10;95.50;;;;;;5060577;28;19929;-77
2022/01/12 01:02:55;;;;;;;;;;;3.10;95.60;;;;;;5065212;28;19928;-77
2022/01/12 01:05:22;;;;;;;;;;;3.10;95.60;;;;;;5062385;28;19932;-77
2022/01/12 01:07:49;;;;;;;;;;;3.10;95.60;;;;;;5061015;28;19929;-78
2022/01/12 01:10:25;;;;;;;;;;;3.10;95.60;;;;;;5058157;28;21222;-77
2022/01/12 01:12:52;;;;;;;;;;;3.10;95.60;;;;;;5059647;28;20011;-77
2022/01/12 01:15:27;;;;;;;;;;;3.10;95.60;;;;;;5060936;28;19929;-77
2022/01/12 01:26:08;;;;;;;;;;;3.00;95.70;;;;;;5061410;28;20017;-77
2022/01/12 01:28:34;;;;;;;;;;;3.00;95.70;;;;;;5064149;28;19929;-77
2022/01/12 01:31:02;;;;;;;;;;;3.00;95.70;;;;;;5060445;28;19936;-77
2022/01/12 01:33:28;;;;;;;;;;;2.90;95.70;;;;;;5062141;28;19935;-78
2022/01/12 01:35:57;;;;;;;;;;;3.00;95.70;;;;;;5062906;28;19929;-77
2022/01/12 01:38:23;;;;;;;;;;;2.90;95.70;;;;;;5064517;28;19962;-77
2022/01/12 01:40:50;;;;;;;;;;;2.90;95.70;;;;;;5063310;28;19947;-77
2022/01/12 01:43:25;;;;;;;;;;;2.90;95.70;;;;;;5064868;28;19932;-78
2022/01/12 01:54:04;;;;;;;;;;;2.80;95.80;;;;;;5060762;28;19982;-77
2022/01/12 01:56:31;;;;;;;;;;;2.80;95.80;;;;;;5063665;28;19932;-77
2022/01/12 01:58:59;;;;;;;;;;;2.70;95.70;;;;;;5066717;28;19928;-77
2022/01/12 02:01:26;;;;;;;;;;;2.70;95.70;;;;;;5063038;28;19928;-77
2022/01/12 02:03:55;;;;;;;;;;;2.70;95.70;;;;;;5066264;28;19947;-77
2022/01/12 02:06:21;;;;;;;;;;;2.70;95.80;;;;;;5064239;28;19928;-77
2022/01/12 02:08:48;;;;;;;;;;;2.70;95.80;;;;;;5064730;28;19929;-77
2022/01/12 02:11:14;;;;;;;;;;;2.60;95.80;;;;;;5062693;28;20258;-77
2022/01/12 02:13:41;;;;;;;;;;;2.60;95.80;;;;;;5059008;28;19929;-77
2022/01/12 02:16:09;;;;;;;;;;;2.60;95.70;;;;;;5059759;28;19936;-77
2022/01/12 02:18:53;;;;;;;;;;;2.60;95.70;;;;;;5063818;28;19928;-77
2022/01/12 02:35:18;;;;;;;;;;;2.40;95.80;;;;;;5063128;28;20012;-79
2022/01/12 02:40:33;;;;;;;;;;;2.40;95.80;;;;;;5060624;28;20704;-77
2022/01/12 02:43:08;;;;;;;;;;;2.40;95.80;;;;;;5061638;28;19929;-76
2022/01/12 02:51:13;;;;;;;;;;;2.30;95.80;;;;;;5063111;28;19934;-77
2022/01/12 02:53:41;;;;;;;;;;;2.30;95.80;;;;;;5058548;28;19929;-77
2022/01/12 02:56:08;;;;;;;;;;;2.30;95.80;;;;;;5068028;28;20404;-77
2022/01/12 02:58:35;;;;;;;;;;;2.20;95.80;;;;;;5063742;28;20470;-77
2022/01/12 03:01:34;;;;;;;;;;;2.20;96.20;;;;;;5058353;28;20378;-76
2022/01/12 03:04:03;;;;;;;;;;;2.20;95.80;;;;;;5064141;28;19933;-77
2022/01/12 03:06:33;;;;;;;;;;;2.20;95.90;;;;;;5060684;28;19982;-77
2022/01/12 03:09:01;;;;;;;;;;;2.10;95.90;;;;;;5060076;28;19951;-77
2022/01/12 03:11:28;;;;;;;;;;;2.20;95.90;;;;;;5060855;28;19932;-77
2022/01/12 03:13:55;;;;;;;;;;;2.10;95.90;;;;;;5061637;28;19936;-77
2022/01/12 03:16:25;;;;;;;;;;;2.10;95.90;;;;;;5058490;28;20343;-77
2022/01/12 03:18:53;;;;;;;;;;;2.10;95.90;;;;;;5059835;28;19962;-77
2022/01/12 03:21:20;;;;;;;;;;;2.10;95.90;;;;;;5062648;28;20540;-77
2022/01/12 03:23:47;;;;;;;;;;;2.00;95.90;;;;;;5065490;28;19940;-77
2022/01/12 03:26:15;;;;;;;;;;;2.00;95.90;;;;;;5061897;28;19928;-77
2022/01/12 03:28:42;;;;;;;;;;;2.00;95.90;;;;;;5062532;28;20475;-77
2022/01/12 03:31:15;;;;;;;;;;;2.00;95.90;;;;;;5060466;28;19936;-77
2022/01/12 03:33:57;;;;;;;;;;;2.00;95.90;;;;;;5062437;28;20717;-78
2022/01/12 03:36:27;;;;;;;;;;;2.00;95.90;;;;;;5063949;28;19924;-76
2022/01/12 03:38:55;;;;;;;;;;;1.90;95.90;;;;;;5062213;28;19928;-77
2022/01/12 03:41:23;;;;;;;;;;;1.90;95.90;;;;;;5062657;28;19935;-77
2022/01/12 03:43:50;;;;;;;;;;;1.90;95.90;;;;;;5059272;28;19943;-78
2022/01/12 03:46:18;;;;;;;;;;;1.90;95.90;;;;;;5060097;28;19939;-78
2022/01/12 03:48:45;;;;;;;;;;;1.80;95.90;;;;;;5062718;28;20349;-77
2022/01/12 03:51:11;;;;;;;;;;;1.80;95.90;;;;;;5058466;28;20182;-77
2022/01/12 03:53:38;;;;;;;;;;;1.80;96.20;;;;;;5060112;28;19932;-77
2022/01/12 03:56:04;;;;;;;;;;;1.80;95.90;;;;;;5067552;28;19928;-76
2022/01/12 03:58:32;;;;;;;;;;;1.80;95.90;;;;;;5062002;28;19932;-76
2022/01/12 04:00:59;;;;;;;;;;;1.80;95.90;;;;;;5060022;28;19951;-77
2022/01/12 04:03:27;;;;;;;;;;;1.80;95.90;;;;;;5060324;28;19932;-77
2022/01/12 04:08:38;;;;;;;;;;;1.70;95.90;;;;;;5062799;28;19983;-77
2022/01/12 04:11:04;;;;;;;;;;;1.70;95.90;;;;;;5058845;28;19929;-77
2022/01/12 04:13:32;;;;;;;;;;;1.70;95.90;;;;;;5058785;28;19929;-77
2022/01/12 04:16:00;;;;;;;;;;;1.70;95.90;;;;;;5060232;28;19936;-76
2022/01/12 04:18:27;;;;;;;;;;;1.60;95.90;;;;;;5062128;28;20315;-77
2022/01/12 04:20:54;;;;;;;;;;;1.60;95.90;;;;;;5062327;28;19928;-77
2022/01/12 04:23:21;;;;;;;;;;;1.60;96.00;;;;;;5063939;28;20034;-76
2022/01/12 04:25:48;;;;;;;;;;;1.60;95.90;;;;;;5060191;28;20167;-77
2022/01/12 04:28:15;;;;;;;;;;;1.50;95.90;;;;;;5062533;28;19939;-77
2022/01/12 04:30:44;;;;;;;;;;;1.50;96.00;;;;;;5062438;28;19935;-77
2022/01/12 04:33:11;;;;;;;;;;;1.50;95.90;;;;;;5063036;28;19935;-77
2022/01/12 04:35:45;;;;;;;;;;;1.50;95.90;;;;;;5062430;28;19938;-76
2022/01/12 04:38:12;;;;;;;;;;;1.50;95.90;;;;;;5059815;28;19970;-77
2022/01/12 04:40:38;;;;;;;;;;;1.50;95.90;;;;;;5062986;28;19936;-77
2022/01/12 04:43:07;;;;;;;;;;;1.40;95.90;;;;;;5061349;28;19928;-77
2022/01/12 04:45:40;;;;;;;;;;;1.40;95.90;;;;;;5059228;28;19928;-76
2022/01/12 04:48:30;;;;;;;;;;;1.40;95.90;;;;;;5062071;28;19973;-77
2022/01/12 04:50:57;;;;;;;;;;;1.40;95.90;;;;;;5061907;28;19940;-76
2022/01/12 04:53:23;;;;;;;;;;;1.40;95.90;;;;;;5062687;28;19932;-77
2022/01/12 04:55:51;;;;;;;;;;;1.40;96.00;;;;;;5059224;28;19940;-78
2022/01/12 04:58:18;;;;;;;;;;;1.40;95.90;;;;;;5062147;28;20380;-77
2022/01/12 05:00:45;;;;;;;;;;;1.30;95.90;;;;;;5058843;28;19929;-77
2022/01/12 05:08:52;;;;;;;;;;;1.30;95.90;;;;;;5059374;28;19935;-77
2022/01/12 05:14:03;;;;;;;;;;;1.20;95.90;;;;;;5064282;28;19993;-78
2022/01/12 05:16:30;;;;;;;;;;;1.20;95.90;;;;;;5060403;28;19928;-78
2022/01/12 05:18:59;;;;;;;;;;;1.20;95.90;;;;;;5064883;28;19939;-77
2022/01/12 05:21:26;;;;;;;;;;;1.20;95.90;;;;;;5065142;28;19928;-77
2022/01/12 05:23:53;;;;;;;;;;;1.20;96.00;;;;;;5061862;28;19929;-77
2022/01/12 05:26:20;;;;;;;;;;;1.20;96.00;;;;;;5065750;28;19928;-77
2022/01/12 05:28:46;;;;;;;;;;;1.10;95.90;;;;;;5063307;28;20300;-77
2022/01/12 05:31:13;;;;;;;;;;;1.10;95.90;;;;;;5061524;28;20005;-78
2022/01/12 05:33:44;;;;;;;;;;;1.10;95.90;;;;;;5061028;28;19935;-77
2022/01/12 05:36:12;;;;;;;;;;;1.10;95.90;;;;;;5065528;28;19928;-77
2022/01/12 05:38:39;;;;;;;;;;;1.10;95.90;;;;;;5062087;28;19936;-77
2022/01/12 05:41:06;;;;;;;;;;;1.10;96.00;;;;;;5061766;28;19940;-78
2022/01/12 05:43:35;;;;;;;;;;;1.10;95.90;;;;;;5058847;28;19929;-77
2022/01/12 05:46:10;;;;;;;;;;;1.00;95.90;;;;;;5061451;28;20499;-78
2022/01/12 05:51:22;;;;;;;;;;;1.00;95.90;;;;;;5066111;28;20203;-78
2022/01/12 05:53:49;;;;;;;;;;;1.00;95.90;;;;;;5064269;28;19932;-79
2022/01/12 05:56:15;;;;;;;;;;;1.00;95.90;;;;;;5072652;28;19929;-78
2022/01/12 05:58:42;;;;;;;;;;;0.90;95.90;;;;;;5062725;28;19994;-78
2022/01/12 06:01:08;;;;;;;;;;;0.90;95.90;;;;;;5062747;28;19929;-78
2022/01/12 06:03:35;;;;;;;;;;;0.90;95.90;;;;;;5066805;28;19929;-78
2022/01/12 06:06:02;;;;;;;;;;;0.90;95.90;;;;;;5062176;28;19935;-79
2022/01/12 06:08:30;;;;;;;;;;;0.90;95.90;;;;;;5063678;28;20467;-78
2022/01/12 06:10:57;;;;;;;;;;;0.90;96.00;;;;;;5062962;28;19951;-77
2022/01/12 06:13:23;;;;;;;;;;;0.80;95.90;;;;;;5063970;28;19936;-78
2022/01/12 06:15:50;;;;;;;;;;;0.80;96.00;;;;;;5063047;28;19936;-79
2022/01/12 06:18:17;;;;;;;;;;;0.80;96.00;;;;;;5062166;28;19932;-80
2022/01/12 06:20:43;;;;;;;;;;;0.80;96.00;;;;;;5063789;28;19940;-78
2022/01/12 06:23:10;;;;;;;;;;;0.80;95.30;;;;;;5066783;28;19928;-79
2022/01/12 06:25:38;;;;;;;;;;;0.70;95.20;;;;;;5064191;28;19936;-80
2022/01/12 06:28:22;;;;;;;;;;;0.70;95.30;;;;;;5068536;28;20776;-79
2022/01/12 06:33:33;;;;;;;;;;;0.70;95.50;;;;;;5066910;28;19939;-78
2022/01/12 06:36:00;;;;;;;;;;;0.70;95.50;;;;;;5068670;28;19929;-77
2022/01/12 06:38:26;;;;;;;;;;;0.60;95.50;;;;;;5070610;28;19928;-79
2022/01/12 06:40:54;;;;;;;;;;;0.70;95.70;;;;;;5065057;28;19928;-77
2022/01/12 06:43:21;;;;;;;;;;;0.70;95.70;;;;;;5068891;28;19929;-76
2022/01/12 06:45:48;;;;;;;;;;;0.70;95.70;;;;;;5065552;28;19932;-80
2022/01/12 06:48:14;;;;;;;;;;;0.70;95.70;;;;;;5067567;28;20016;-79
2022/01/12 06:50:41;;;;;;;;;;;0.60;95.70;;;;;;5063817;28;19928;-79
2022/01/12 06:53:07;;;;;;;;;;;0.60;95.70;;;;;;5068348;28;19933;-82
2022/01/12 06:55:34;;;;;;;;;;;0.60;95.70;;;;;;5068051;28;19939;-80
2022/01/12 06:58:02;;;;;;;;;;;0.60;95.80;;;;;;5068576;28;19928;-80
2022/01/12 07:00:29;;;;;;;;;;;0.60;95.80;;;;;;5065405;28;19928;-79
2022/01/12 07:02:55;;;;;;;;;;;0.60;95.80;;;;;;5065810;28;19933;-78
2022/01/12 07:05:22;;;;;;;;;;;0.60;95.80;;;;;;5067996;28;19939;-80
2022/01/12 07:07:48;;;;;;;;;;;0.60;95.80;;;;;;5066039;28;19936;-81
2022/01/12 07:10:15;;;;;;;;;;;0.60;95.80;;;;;;5065945;28;19933;-80
2022/01/12 07:12:41;;;;;;;;;;;0.60;95.80;;;;;;5064263;28;20446;-79
2022/01/12 07:15:10;;;;;;;;;;;0.60;95.80;;;;;;5066743;28;19982;-80
2022/01/12 07:17:36;;;;;;;;;;;0.50;95.80;;;;;;5068003;28;19936;-81
2022/01/12 07:20:04;;;;;;;;;;;0.50;95.80;;;;;;5067623;28;19932;-79
2022/01/12 07:22:31;;;;;;;;;;;0.50;95.80;;;;;;5070592;28;19929;-79
2022/01/12 07:24:57;;;;;;;;;;;0.50;95.80;;;;;;5061351;28;20412;-81
2022/01/12 07:27:25;;;;;;;;;;;0.50;95.80;;;;;;5068823;28;20686;-80
2022/01/12 07:29:51;;;;;;;;;;;0.50;95.80;;;;;;5065147;28;19936;-80
2022/01/12 07:32:19;;;;;;;;;;;0.50;95.80;;;;;;5064339;28;20351;-82
2022/01/12 07:34:46;;;;;;;;;;;0.50;95.80;;;;;;5065025;28;19924;-79
2022/01/12 07:37:13;;;;;;;;;;;0.40;95.80;;;;;;5068219;28;20643;-78
2022/01/12 07:39:39;;;;;;;;;;;0.40;95.80;;;;;;5062144;28;20409;-79
2022/01/12 07:42:06;;;;;;;;;;;0.40;95.80;;;;;;5061117;28;19935;-80
2022/01/12 07:44:33;;;;;;;;;;;0.40;95.90;;;;;;5066036;28;19928;-79
2022/01/12 07:47:00;;;;;;;;;;;0.40;96.10;;;;;;5061128;28;20745;-79
2022/01/12 07:49:28;;;;;;;;;;;0.40;95.80;;;;;;5064180;28;19928;-78
2022/01/12 07:51:54;;;;;;;;;;;0.40;95.80;;;;;;5065608;28;19936;-78
2022/01/12 07:54:21;;;;;;;;;;;0.40;95.90;;;;;;5065815;28;19940;-78
2022/01/12 07:56:48;;;;;;;;;;;0.40;95.90;;;;;;5066522;28;19928;-79
2022/01/12 07:59:14;;;;;;;;;;;0.40;95.90;;;;;;5066534;28;20371;-78
2022/01/12 08:01:41;;;;;;;;;;;0.40;95.90;;;;;;5062867;28;19928;-78
2022/01/12 08:04:07;;;;;;;;;;;0.30;95.90;;;;;;5067329;28;20380;-79
2022/01/12 08:06:35;;;;;;;;;;;0.40;95.90;;;;;;5070023;28;19936;-79
2022/01/12 08:09:02;;;;;;;;;;;0.30;95.90;;;;;;5063131;28;19924;-80
2022/01/12 08:11:31;;;;;;;;;;;0.40;95.90;;;;;;5064559;28;19928;-78
2022/01/12 08:13:57;;;;;;;;;;;0.30;95.90;;;;;;5063894;28;19974;-79
2022/01/12 08:16:24;;;;;;;;;;;0.30;95.90;;;;;;5064645;28;20000;-78
2022/01/12 08:18:50;;;;;;;;;;;0.30;95.90;;;;;;5064766;28;19959;-79
2022/01/12 08:21:19;;;;;;;;;;;0.30;96.00;;;;;;5061712;28;21265;-78
2022/01/12 08:23:47;;;;;;;;;;;0.30;96.00;;;;;;5064055;28;19939;-78
2022/01/12 08:26:13;;;;;;;;;;;0.30;96.00;;;;;;5063412;28;19939;-79
2022/01/12 08:28:40;;;;;;;;;;;0.30;96.00;;;;;;5066754;28;19940;-77
2022/01/12 08:31:06;;;;;;;;;;;0.30;96.00;;;;;;5061651;28;19940;-78
2022/01/12 08:33:33;;;;;;;;;;;0.30;96.00;;;;;;5064994;28;19928;-79
2022/01/12 08:35:59;;;;;;;;;;;0.40;96.00;;;;;;5063430;28;20042;-78
2022/01/12 08:38:26;;;;;;;;;;;0.30;96.00;;;;;;5065724;28;19934;-79
2022/01/12 08:40:54;;;;;;;;;;;0.30;96.00;;;;;;5060745;28;19939;-78
2022/01/12 08:43:21;;;;;;;;;;;0.30;96.00;;;;;;5063906;28;19932;-77
2022/01/12 08:45:47;;;;;;;;;;;0.30;96.00;;;;;;5063605;28;20431;-78
2022/01/12 08:48:14;;;;;;;;;;;0.40;96.10;;;;;;5059782;28;19939;-78
2022/01/12 08:50:41;;;;;;;;;;;0.30;96.00;;;;;;5063471;28;19942;-79
2022/01/12 08:53:07;;;;;;;;;;;0.30;96.10;;;;;;5063885;28;19968;-79
2022/01/12 08:55:34;;;;;;;;;;;0.30;96.10;;;;;;5063584;28;19936;-78
2022/01/12 08:58:02;;;;;;;;;;;0.30;96.10;;;;;;5064336;28;19936;-78
2022/01/12 09:00:28;;;;;;;;;;;0.30;96.10;;;;;;5064213;28;19933;-79
2022/01/12 09:02:55;;;;;;;;;;;0.30;96.10;;;;;;5063069;28;19929;-78
2022/01/12 09:05:22;;;;;;;;;;;0.30;96.00;;;;;;5063355;28;19928;-79
2022/01/12 09:07:48;;;;;;;;;;;0.30;96.10;;;;;;5064679;28;19936;-79
2022/01/12 09:10:15;;;;;;;;;;;0.30;96.10;;;;;;5063557;28;20680;-78
2022/01/12 09:12:42;;;;;;;;;;;0.30;96.10;;;;;;5057367;28;19925;-78
2022/01/12 09:15:11;;;;;;;;;;;0.30;96.10;;;;;;5064748;28;19928;-78
2022/01/12 09:17:38;;;;;;;;;;;0.30;96.10;;;;;;5057063;28;20003;-78
2022/01/12 09:20:06;;;;;;;;;;;0.30;96.10;;;;;;5063444;28;20534;-78
2022/01/12 09:22:33;;;;;;;;;;;0.30;96.10;;;;;;5063214;28;20456;-78
2022/01/12 09:24:59;;;;;;;;;;;0.30;96.10;;;;;;5060827;28;19932;-79
2022/01/12 09:27:26;;;;;;;;;;;0.30;96.10;;;;;;5063928;28;19932;-77
2022/01/12 09:29:52;;;;;;;;;;;0.30;96.10;;;;;;5062119;28;19951;-80
2022/01/12 09:32:20;;;;;;;;;;;0.30;96.20;;;;;;5064142;28;19932;-79
2022/01/12 09:34:47;;;;;;;;;;;0.30;96.20;;;;;;5063035;28;20312;-79
2022/01/12 09:37:14;;;;;;;;;;;0.30;96.20;;;;;;5064689;28;20408;-81
2022/01/12 09:39:40;;;;;;;;;;;0.30;96.20;;;;;;5061520;28;20023;-77
2022/01/12 09:42:07;;;;;;;;;;;0.30;96.20;;;;;;5061274;28;19988;-77
2022/01/12 09:44:35;;;;;;;;;;;0.30;96.20;;;;;;5060896;28;19936;-76
2022/01/12 09:47:03;;;;;;;;;;;0.30;96.20;;;;;;5061210;28;19929;-78
2022/01/12 09:49:31;;;;;;;;;;;0.30;96.20;;;;;;5063088;28;20068;-76
2022/01/12 09:51:58;;;;;;;;;;;0.30;96.20;;;;;;5060274;28;20856;-77
2022/01/12 09:54:26;;;;;;;;;;;0.30;96.20;;;;;;5061487;28;20603;-77
2022/01/12 09:56:52;;;;;;;;;;;0.30;96.10;;;;;;5063836;28;19987;-76
2022/01/12 09:59:20;;;;;;;;;;;0.30;96.10;;;;;;5066615;28;19932;-77
2022/01/12 10:01:48;;;;;;;;;;;0.30;96.10;;;;;;5055762;28;19932;-77
2022/01/12 10:04:16;;;;;;;;;;;0.30;96.10;;;;;;5062472;28;20497;-77
2022/01/12 10:06:45;;;;;;;;;;;0.30;96.10;;;;;;5065507;28;19938;-76
2022/01/12 10:09:12;;;;;;;;;;;0.40;96.10;;;;;;5062472;28;19928;-77
2022/01/12 10:11:40;;;;;;;;;;;0.40;96.10;;;;;;5061767;28;19933;-76
2022/01/12 10:14:07;;;;;;;;;;;0.40;96.10;;;;;;5065058;28;19940;-78
2022/01/12 10:16:34;;;;;;;;;;;0.40;96.10;;;;;;5060937;28;19928;-77
2022/01/12 10:19:01;;;;;;;;;;;0.40;96.10;;;;;;5064826;28;19935;-77
2022/01/12 10:21:29;;;;;;;;;;;0.40;96.40;;;;;;5063884;28;19928;-76
2022/01/12 10:23:58;;;;;;;;;;;0.50;96.10;;;;;;5064751;28;20411;-76
2022/01/12 10:26:28;;;;;;;;;;;0.40;96.00;;;;;;5069068;28;19934;-76
2022/01/12 10:29:01;;;;;;;;;;;0.50;96.00;;;;;;5066091;28;19934;-76
2022/01/12 10:31:28;;;;;;;;;;;0.50;96.00;;;;;;5062471;28;19983;-78
2022/01/12 10:34:01;;;;;;;;;;;0.50;96.00;;;;;;5068140;28;19932;-79
2022/01/12 10:36:36;;;;;;;;;;;0.50;96.00;;;;;;5068105;28;20623;-77
2022/01/12 10:39:06;;;;;;;;;;;0.50;96.00;;;;;;5067253;28;19936;-78
2022/01/12 10:41:33;;;;;;;;;;;0.50;96.00;;;;;;5062002;28;19928;-78
2022/01/12 10:43:59;;;;;;;;;;;0.60;96.00;;;;;;5064487;28;19929;-79
2022/01/12 10:46:26;;;;;;;;;;;0.60;96.00;;;;;;5066345;28;19928;-79
2022/01/12 10:48:54;;;;;;;;;;;0.70;96.00;;;;;;5067019;28;20719;-79
2022/01/12 10:51:22;;;;;;;;;;;0.70;95.90;;;;;;5061436;28;19932;-79
2022/01/12 10:53:49;;;;;;;;;;;0.80;95.90;;;;;;5065980;28;19936;-78
2022/01/12 10:56:17;;;;;;;;;;;0.80;95.80;;;;;;5062164;28;19990;-79
2022/01/12 10:58:45;;;;;;;;;;;0.90;95.60;;;;;;5066126;28;20104;-79
2022/01/12 11:01:12;;;;;;;;;;;0.90;95.50;;;;;;5067373;28;19962;-77
2022/01/12 11:03:39;;;;;;;;;;;1.00;95.40;;;;;;5065951;28;20587;-79
2022/01/12 11:06:05;;;;;;;;;;;1.10;95.20;;;;;;5066212;28;19928;-77
2022/01/12 11:08:32;;;;;;;;;;;1.20;95.10;;;;;;5065646;28;19990;-79
2022/01/12 11:11:00;;;;;;;;;;;1.20;94.90;;;;;;5062648;28;19928;-77
2022/01/12 11:13:28;;;;;;;;;;;1.30;94.80;;;;;;5064453;28;19929;-79
2022/01/12 11:15:56;;;;;;;;;;;1.30;94.60;;;;;;5060801;28;19932;-76
2022/01/12 11:18:23;;;;;;;;;;;1.30;94.60;;;;;;5064668;28;20024;-77
2022/01/12 11:20:51;;;;;;;;;;;1.40;94.50;;;;;;5066786;28;19928;-76
2022/01/12 11:23:18;;;;;;;;;;;1.40;94.40;;;;;;5064498;28;19935;-77
2022/01/12 11:25:47;;;;;;;;;;;1.40;94.30;;;;;;5065143;28;19989;-76
2022/01/12 11:28:15;;;;;;;;;;;1.40;94.30;;;;;;5062113;28;20406;-76
2022/01/12 11:30:45;;;;;;;;;;;1.40;94.30;;;;;;5060681;28;19994;-76
2022/01/12 11:33:12;;;;;;;;;;;1.40;94.30;;;;;;5062560;28;20328;-78
2022/01/12 11:35:39;;;;;;;;;;;1.40;94.30;;;;;;5069255;28;20049;-77
2022/01/12 11:38:07;;;;;;;;;;;1.40;94.30;;;;;;5065557;28;19952;-77
2022/01/12 11:40:35;;;;;;;;;;;1.40;94.30;;;;;;5055978;28;20423;-77
2022/01/12 11:43:02;;;;;;;;;;;1.40;94.30;;;;;;5056964;28;19928;-76
2022/01/12 11:45:29;;;;;;;;;;;1.40;94.30;;;;;;5062731;28;19938;-77
2022/01/12 11:47:57;;;;;;;;;;;1.40;94.40;;;;;;5060918;28;19929;-77
2022/01/12 11:50:23;;;;;;;;;;;1.40;94.40;;;;;;5064713;28;20172;-78
2022/01/12 11:52:50;;;;;;;;;;;1.40;94.40;;;;;;5069764;28;20128;-78
2022/01/12 11:55:18;;;;;;;;;;;1.50;94.40;;;;;;5063383;28;20410;-77
2022/01/12 11:57:47;;;;;;;;;;;1.50;94.40;;;;;;5067552;28;19928;-77
2022/01/12 12:00:14;;;;;;;;;;;1.40;94.30;;;;;;5063939;28;19941;-77
2022/01/12 12:02:42;;;;;;;;;;;1.50;94.40;;;;;;5065393;28;19939;-78
2022/01/12 12:05:11;;;;;;;;;;;1.50;94.40;;;;;;5066590;28;19982;-78
2022/01/12 12:07:44;;;;;;;;;;;1.50;94.40;;;;;;5065139;28;19939;-78
2022/01/12 12:10:12;;;;;;;;;;;1.50;94.30;;;;;;5066139;28;19936;-77
2022/01/12 12:12:38;;;;;;;;;;;1.50;94.30;;;;;;5064364;28;19932;-78
2022/01/12 12:15:06;;;;;;;;;;;1.50;94.30;;;;;;5064614;28;19935;-77
2022/01/12 12:17:34;;;;;;;;;;;1.50;94.30;;;;;;5058083;28;19928;-77
2022/01/12 12:20:01;;;;;;;;;;;1.50;94.20;;;;;;5066775;28;19928;-77
2022/01/12 12:22:30;;;;;;;;;;;1.60;94.20;;;;;;5067495;28;19935;-78
2022/01/12 12:24:58;;;;;;;;;;;1.60;94.10;;;;;;5064548;28;19935;-77
2022/01/12 12:27:25;;;;;;;;;;;1.70;94.10;;;;;;5065504;28;19935;-78
2022/01/12 12:29:53;;;;;;;;;;;1.70;94.10;;;;;;5062398;28;20460;-77
2022/01/12 12:32:20;;;;;;;;;;;1.70;94.00;;;;;;5062605;28;19928;-77
2022/01/12 12:34:47;;;;;;;;;;;1.80;94.00;;;;;;5061414;28;19932;-77
2022/01/12 12:37:15;;;;;;;;;;;1.80;93.90;;;;;;5066198;28;19928;-77
2022/01/12 12:39:44;;;;;;;;;;;1.90;93.80;;;;;;5059754;28;20447;-77
2022/01/12 12:42:14;;;;;;;;;;;1.90;93.60;;;;;;5061972;28;19928;-78
2022/01/12 12:44:41;;;;;;;;;;;2.00;93.50;;;;;;5064106;28;19939;-77
2022/01/12 12:47:09;;;;;;;;;;;2.10;93.30;;;;;;5065341;28;19939;-77
2022/01/12 12:49:37;;;;;;;;;;;2.10;93.20;;;;;;5059669;28;19935;-77
2022/01/12 12:52:04;;;;;;;;;;;2.20;93.10;;;;;;5064596;28;19936;-77
2022/01/12 12:54:31;;;;;;;;;;;2.20;93.00;;;;;;5066107;28;19951;-77
2022/01/12 12:57:07;;;;;;;;;;;2.20;92.90;;;;;;5065302;28;19932;-76
2022/01/12 12:59:34;;;;;;;;;;;2.30;92.90;;;;;;5065285;28;20070;-77
2022/01/12 13:02:00;;;;;;;;;;;2.30;92.90;;;;;;5061184;28;19960;-77
2022/01/12 13:04:27;;;;;;;;;;;2.30;92.90;;;;;;5059882;28;19974;-77
2022/01/12 13:06:54;;;;;;;;;;;2.30;92.90;;;;;;5063425;28;19936;-78
2022/01/12 13:09:21;;;;;;;;;;;2.30;92.70;;;;;;5062345;28;19932;-79
2022/01/12 13:11:47;;;;;;;;;;;2.30;92.70;;;;;;5062480;28;20022;-77
2022/01/12 13:14:16;;;;;;;;;;;2.40;92.80;;;;;;5061874;28;19951;-79
2022/01/12 13:16:48;;;;;;;;;;;2.40;92.80;;;;;;5062977;28;19928;-79
2022/01/12 13:19:23;;;;;;;;;;;2.40;92.70;;;;;;5062494;28;19932;-78
2022/01/12 13:21:49;;;;;;;;;;;2.40;92.70;;;;;;5062484;28;19941;-78
2022/01/12 13:24:16;;;;;;;;;;;2.40;92.60;;;;;;5059807;28;20651;-77
2022/01/12 13:26:42;;;;;;;;;;;2.50;92.60;;;;;;5064698;28;19986;-78
2022/01/12 13:29:11;;;;;;;;;;;2.50;92.50;;;;;;5062832;28;20350;-77
2022/01/12 13:31:39;;;;;;;;;;;2.50;92.50;;;;;;5065654;28;19932;-77
2022/01/12 13:34:12;;;;;;;;;;;2.50;92.90;;;;;;5066776;28;20672;-78
2022/01/12 13:36:39;;;;;;;;;;;2.50;92.50;;;;;;5069159;28;20396;-79
2022/01/12 13:39:06;;;;;;;;;;;2.50;92.60;;;;;;5065642;28;20346;-78
2022/01/12 13:41:34;;;;;;;;;;;2.50;92.70;;;;;;5066802;28;19936;-77
2022/01/12 13:44:05;;;;;;;;;;;2.50;92.70;;;;;;5067687;28;20388;-78
2022/01/12 13:46:33;;;;;;;;;;;2.50;92.60;;;;;;5066996;28;19939;-78
2022/01/12 13:49:22;;;;;;;;;;;2.50;92.60;;;;;;5070092;28;19932;-78
2022/01/12 13:51:59;;;;;;;;;;;2.60;92.60;;;;;;5066565;28;19951;-78
2022/01/12 13:54:30;;;;;;;;;;;2.60;92.60;;;;;;5067107;28;19928;-78
2022/01/12 13:56:57;;;;;;;;;;;2.70;92.50;;;;;;5068470;28;19970;-78
2022/01/12 13:59:25;;;;;;;;;;;2.80;92.40;;;;;;5067427;28;19940;-78
2022/01/12 14:01:52;;;;;;;;;;;2.80;92.30;;;;;;5067357;28;19928;-78
2022/01/12 14:04:35;;;;;;;;;;;2.90;92.20;;;;;;5068946;28;19932;-79
2022/01/12 14:07:04;;;;;;;;;;;2.90;92.20;;;;;;5064996;28;19936;-79
2022/01/12 14:09:34;;;;;;;;;;;2.90;92.20;;;;;;5067287;28;19933;-78
2022/01/12 14:12:11;;;;;;;;;;;3.00;92.20;;;;;;5068559;28;19980;-79
2022/01/12 14:14:47;;;;;;;;;;;3.00;92.20;;;;;;5064206;28;19928;-80
2022/01/12 14:17:24;;;;;;;;;;;3.00;92.10;;;;;;5061276;28;19928;-80
2022/01/12 14:19:56;;;;;;;;;;;3.10;92.00;;;;;;5063536;28;19928;-80
2022/01/12 14:22:23;;;;;;;;;;;3.10;92.00;;;;;;5063280;28;19932;-81
2022/01/12 14:24:53;;;;;;;;;;;3.10;92.00;;;;;;5057761;28;19961;-79
2022/01/12 14:27:20;;;;;;;;;;;3.10;92.00;;;;;;5065404;28;20303;-79
2022/01/12 14:29:47;;;;;;;;;;;3.00;92.10;;;;;;5064955;28;19928;-80
2022/01/12 14:32:13;;;;;;;;;;;3.00;92.10;;;;;;5062617;28;19933;-79
2022/01/12 14:34:40;;;;;;;;;;;3.00;92.20;;;;;;5063932;28;20312;-80
2022/01/12 14:37:09;;;;;;;;;;;3.00;92.20;;;;;;5066821;28;19928;-80
2022/01/12 14:39:36;;;;;;;;;;;2.90;92.30;;;;;;5057503;28;19936;-79
2022/01/12 14:42:03;;;;;;;;;;;2.90;92.40;;;;;;5064331;28;19932;-78
2022/01/12 14:44:37;;;;;;;;;;;3.20;92.80;;;;;;5063794;28;19929;-78
2022/01/12 14:47:04;;;;;;;;;;;3.70;92.30;;;;;;5062582;28;20654;-79
2022/01/12 14:49:30;;;;;;;;;;;4.10;91.30;;;;;;5064314;28;19928;-80
2022/01/12 14:51:57;;;;;;;;;;;4.30;90.80;;;;;;5058175;28;20459;-78
2022/01/12 14:54:25;;;;;;;;;;;4.40;90.50;;;;;;5065674;28;19932;-79
2022/01/12 14:56:51;;;;;;;;;;;4.40;90.40;;;;;;5053694;28;19982;-79
2022/01/12 14:59:18;;;;;;;;;;;4.50;90.40;;;;;;5064596;28;19975;-80
2022/01/12 15:01:45;;;;;;;;;;;4.50;90.40;;;;;;5059584;28;20027;-78
2022/01/12 15:04:11;;;;;;;;;;;4.50;90.30;;;;;;5062129;28;19929;-78
2022/01/12 15:06:38;;;;;;;;;;;4.50;90.30;;;;;;5062243;28;19936;-78
2022/01/12 15:09:04;;;;;;;;;;;4.50;90.40;;;;;;5063131;28;19928;-78
2022/01/12 15:11:39;;;;;;;;;;;4.40;90.50;;;;;;5063855;28;19940;-77
2022/01/12 15:14:22;;;;;;;;;;;4.40;90.60;;;;;;5072026;28;20030;-78
2022/01/12 15:16:48;;;;;;;;;;;4.40;90.80;;;;;;5060090;28;19928;-77
2022/01/12 15:19:15;;;;;;;;;;;4.40;90.90;;;;;;5062203;28;19932;-78
2022/01/12 15:21:42;;;;;;;;;;;4.30;90.90;;;;;;5062774;28;19928;-78
2022/01/12 15:24:09;;;;;;;;;;;4.30;91.00;;;;;;5062471;28;19951;-77
2022/01/12 15:26:37;;;;;;;;;;;4.30;91.10;;;;;;5062820;28;19929;-79
2022/01/12 15:29:04;;;;;;;;;;;4.30;91.20;;;;;;5066750;28;19933;-78
2022/01/12 15:31:30;;;;;;;;;;;4.20;91.30;;;;;;5069676;28;19928;-77
2022/01/12 15:33:57;;;;;;;;;;;4.20;91.30;;;;;;5073478;28;19932;-76
2022/01/12 15:36:23;;;;;;;;;;;4.20;91.40;;;;;;5066205;28;19932;-77